Hlavní strana
METAR-TAF:

METAR-TAF

Letiště :

Barranquilla, Kolumbie

zeměpisná šířka: 10-53N, zeměpisná délka: 074-47W, výška: 14 m

Aktuální stav počasí

Zpráva byla vytvořena před 21 minutami, v 08:00 UTC
Severní vítr 6 kt
Teplota 27°C
Vlhkost vzduchu 74%
Tlak 1009 hPa
Viditelnost 10 km a více
Žádná oblačnost pod 1500 m, nevyskytují se cumulonimby.

METAR: SKBQ 110800Z 01006KT CAVOK 27/22 A2979 NOSIG

Čas: 03:21 (08:21 UTC)

Předpověď počasí

Zpráva byla vytvořena před 3 hodinami a 51 minutami, v 04:30 UTC
Předpověď platná od 11 v 06 UTC do 12 v 06 UTC
Severní vítr 10 kt
Viditelnost 10 km a více
Skoro jasno ve výšce 1500 ft

TAF: SKBQ 110430Z 1106/1206 36010KT 9999 FEW015 TX33/1117Z TN25/1110Z

Stav a předpovědi počasí z více než 4 000 letišť (zprávy METAR a TAF).

Červené a žluté tečky na mapě představují dostupné meteorologické stanice.

Když kurzor umístíte na tečku, zobrazí se název stanice.

Pak kliknutím zobrazíte stav a předpověď počasí.

Chcete-li změnit mapu, kliknutím na zelené tlačítko se znaménkem +mapu přiblížíte, kliknutím na zelené tlačítko se znaménkem – mapu oddálíte a kliknutím na zelené šipky přejdete na sousední mapy.


METAR-TAF: